createdAt,value
2022-11-29T00:00:50.128Z,13.55
2022-11-29T00:01:52.426Z,13.73
2022-11-29T00:02:54.884Z,13.27
2022-11-29T00:03:57.647Z,13.05
2022-11-29T00:04:59.812Z,12.40
2022-11-29T00:06:09.285Z,14.85
2022-11-29T00:07:11.416Z,12.68
2022-11-29T00:08:13.639Z,13.48
2022-11-29T00:09:15.753Z,13.68
2022-11-29T00:10:18.179Z,11.95
2022-11-29T00:11:41.909Z,12.00
2022-11-29T00:12:47.364Z,13.15
2022-11-29T00:13:49.457Z,14.20
2022-11-29T00:14:51.594Z,13.02
2022-11-29T00:15:53.679Z,13.77
2022-11-29T00:17:03.175Z,14.30
2022-11-29T00:18:06.769Z,13.15
2022-11-29T00:19:10.887Z,17.23
2022-11-29T00:20:13.428Z,13.65
2022-11-29T00:21:15.574Z,13.63
2022-11-29T00:22:17.739Z,14.80
2022-11-29T00:23:19.871Z,12.55
2022-11-29T00:24:22.223Z,13.50
2022-11-29T00:25:24.433Z,12.65
2022-11-29T00:26:26.784Z,14.88
2022-11-29T00:27:29.369Z,14.13
2022-11-29T00:28:31.652Z,11.75
2022-11-29T00:29:33.761Z,12.38
2022-11-29T00:30:35.951Z,13.50
2022-11-29T00:31:38.338Z,12.77
2022-11-29T00:32:40.526Z,16.63
2022-11-29T00:33:42.760Z,12.40
2022-11-29T00:34:45.170Z,13.52
2022-11-29T00:35:47.444Z,14.13
2022-11-29T00:36:49.591Z,14.18
2022-11-29T00:37:51.761Z,15.18
2022-11-29T00:38:54.044Z,13.52
2022-11-29T00:39:56.191Z,14.65
2022-11-29T00:40:58.323Z,13.98
2022-11-29T00:42:00.531Z,13.82
2022-11-29T00:43:02.686Z,15.57
2022-11-29T00:44:04.856Z,15.32
2022-11-29T00:45:07.521Z,15.52
2022-11-29T00:46:11.855Z,15.00
2022-11-29T00:47:14.049Z,16.02
2022-11-29T00:48:16.166Z,14.60
2022-11-29T00:49:18.463Z,15.45
2022-11-29T00:50:20.663Z,14.38
2022-11-29T00:51:22.890Z,14.80
2022-11-29T00:52:25.003Z,16.27
2022-11-29T00:53:27.488Z,16.90
2022-11-29T00:54:29.676Z,16.80
2022-11-29T00:55:31.818Z,16.90
2022-11-29T00:56:33.929Z,15.93
2022-11-29T00:57:36.087Z,15.63
2022-11-29T00:58:38.402Z,15.02
2022-11-29T00:59:40.541Z,15.48
2022-11-29T01:00:42.789Z,13.70
2022-11-29T01:01:44.964Z,15.23
2022-11-29T01:02:47.233Z,15.95
2022-11-29T01:03:49.523Z,15.80
2022-11-29T01:04:51.659Z,15.73
2022-11-29T01:06:18.446Z,16.98
2022-11-29T01:07:20.663Z,13.55
2022-11-29T01:08:22.868Z,15.23
2022-11-29T01:09:25.018Z,15.93
2022-11-29T01:10:27.568Z,15.88
2022-11-29T01:11:29.782Z,14.45
2022-11-29T01:12:36.647Z,16.73
2022-11-29T01:13:39.442Z,14.88
2022-11-29T01:14:41.942Z,16.02
2022-11-29T01:15:44.217Z,15.38
2022-11-29T01:16:46.444Z,15.68
2022-11-29T01:17:49.420Z,14.60
2022-11-29T01:18:51.667Z,16.27
2022-11-29T01:19:53.976Z,16.58
2022-11-29T01:21:06.615Z,15.52
2022-11-29T01:22:08.814Z,14.80
2022-11-29T01:23:10.939Z,16.38
2022-11-29T01:24:13.059Z,16.17
2022-11-29T01:25:15.494Z,15.32
2022-11-29T01:26:21.298Z,17.10
2022-11-29T01:27:23.454Z,15.82
2022-11-29T01:28:26.142Z,16.02
2022-11-29T01:29:28.250Z,16.83
2022-11-29T01:30:30.452Z,16.50
2022-11-29T01:31:37.480Z,17.33
2022-11-29T01:32:39.649Z,17.20
2022-11-29T01:33:42.454Z,17.08
2022-11-29T01:34:44.855Z,16.67
2022-11-29T01:35:54.595Z,16.38
2022-11-29T01:36:56.750Z,13.98
2022-11-29T01:37:58.872Z,16.20
2022-11-29T01:39:02.823Z,17.85
2022-11-29T01:40:05.710Z,17.33
2022-11-29T01:41:12.860Z,15.75
2022-11-29T01:42:15.208Z,15.77
2022-11-29T01:43:18.469Z,15.25
2022-11-29T01:44:20.772Z,15.55
2022-11-29T01:45:26.342Z,16.40
2022-11-29T01:46:30.680Z,16.50
2022-11-29T01:47:33.856Z,16.60
2022-11-29T01:48:36.001Z,18.85
2022-11-29T01:49:42.147Z,15.85
2022-11-29T01:50:44.373Z,14.90
2022-11-29T01:51:51.636Z,16.65
2022-11-29T01:52:53.800Z,16.10
2022-11-29T01:53:57.069Z,16.45
2022-11-29T01:55:03.873Z,15.85
2022-11-29T01:56:07.502Z,15.85
2022-11-29T01:57:10.336Z,15.82
2022-11-29T01:58:12.803Z,15.95
2022-11-29T01:59:19.222Z,17.17
2022-11-29T02:00:21.766Z,16.58
2022-11-29T02:01:24.239Z,15.75
2022-11-29T02:02:35.406Z,14.68
2022-11-29T02:03:37.648Z,14.98
2022-11-29T02:04:43.427Z,15.85
2022-11-29T02:05:50.235Z,15.65
2022-11-29T02:06:52.365Z,17.08
2022-11-29T02:07:57.829Z,16.25
2022-11-29T02:09:00.247Z,15.40
2022-11-29T02:10:02.966Z,14.48
2022-11-29T02:11:27.591Z,14.75
2022-11-29T02:12:44.621Z,15.07
2022-11-29T02:14:05.303Z,14.77
2022-11-29T02:15:13.547Z,16.40
2022-11-29T02:16:31.998Z,15.98
2022-11-29T02:17:43.092Z,16.58
2022-11-29T02:19:03.827Z,16.17
2022-11-29T02:20:14.850Z,16.65
2022-11-29T02:21:48.107Z,14.18
2022-11-29T02:22:53.200Z,15.15
2022-11-29T02:24:30.061Z,16.63
2022-11-29T02:25:35.083Z,16.73
2022-11-29T02:26:55.352Z,15.88
2022-11-29T02:28:35.802Z,14.73
2022-11-29T02:29:46.902Z,14.35
2022-11-29T02:31:20.281Z,15.82
2022-11-29T02:32:34.481Z,15.90
2022-11-29T02:33:55.291Z,15.05
2022-11-29T02:35:20.441Z,17.23
2022-11-29T02:37:18.150Z,16.67
2022-11-29T02:38:45.169Z,16.90
2022-11-29T02:40:09.692Z,16.45
2022-11-29T02:41:36.908Z,17.02
2022-11-29T02:43:05.839Z,17.08
2022-11-29T02:44:22.983Z,15.25
2022-11-29T02:45:58.499Z,15.65
2022-11-29T02:47:28.786Z,16.42
2022-11-29T02:49:09.776Z,17.15
2022-11-29T02:50:11.941Z,15.35
2022-11-29T02:51:35.798Z,17.40
2022-11-29T02:53:02.928Z,15.63
2022-11-29T02:54:20.457Z,16.08
2022-11-29T02:55:34.618Z,15.00
2022-11-29T02:56:53.887Z,19.13
2022-11-29T02:58:14.108Z,15.82
2022-11-29T02:59:34.136Z,16.05
2022-11-29T03:00:46.848Z,16.20
2022-11-29T03:02:03.165Z,15.73
2022-11-29T03:03:05.309Z,17.60
2022-11-29T03:04:34.948Z,18.38
2022-11-29T03:05:51.281Z,16.55
2022-11-29T03:07:34.554Z,16.73
2022-11-29T03:08:51.560Z,16.10
2022-11-29T03:10:05.160Z,15.63
2022-11-29T03:11:20.652Z,17.00
2022-11-29T03:12:45.823Z,17.55
2022-11-29T03:13:51.405Z,16.90
2022-11-29T03:14:59.397Z,16.90
2022-11-29T03:16:13.562Z,15.68
2022-11-29T03:17:34.260Z,18.52
2022-11-29T03:18:56.269Z,18.15
2022-11-29T03:20:35.829Z,17.83
2022-11-29T03:21:49.509Z,18.27
2022-11-29T03:23:09.707Z,16.15
2022-11-29T03:24:37.252Z,15.68
2022-11-29T03:25:45.921Z,19.77
2022-11-29T03:26:56.102Z,18.10
2022-11-29T03:28:11.146Z,17.58
2022-11-29T03:29:55.049Z,15.95
2022-11-29T03:31:29.433Z,16.17
2022-11-29T03:33:04.012Z,14.93
2022-11-29T03:34:11.530Z,16.23
2022-11-29T03:35:30.797Z,18.13
2022-11-29T03:36:45.387Z,17.15
2022-11-29T03:38:08.835Z,16.63
2022-11-29T03:39:19.137Z,16.08
2022-11-29T03:40:34.854Z,17.58
2022-11-29T03:42:02.241Z,17.65
2022-11-29T03:43:09.460Z,15.35
2022-11-29T03:44:40.382Z,17.27
2022-11-29T03:46:10.941Z,16.92
2022-11-29T03:47:17.334Z,17.00
2022-11-29T03:48:31.691Z,15.32
2022-11-29T03:49:52.000Z,17.38
2022-11-29T03:50:57.634Z,16.63
2022-11-29T03:52:19.545Z,18.13
2022-11-29T03:53:46.166Z,17.50
2022-11-29T03:55:03.470Z,15.85
2022-11-29T03:56:28.861Z,17.58
2022-11-29T03:57:45.212Z,15.23
2022-11-29T03:59:05.967Z,16.60
2022-11-29T04:00:10.747Z,17.55
2022-11-29T04:01:21.776Z,17.70
2022-11-29T04:03:01.011Z,19.00
2022-11-29T04:04:33.934Z,20.13
2022-11-29T04:06:02.656Z,18.23
2022-11-29T04:07:14.851Z,16.10
2022-11-29T04:08:54.239Z,16.85
2022-11-29T04:10:18.057Z,15.60
2022-11-29T04:11:54.641Z,16.45
2022-11-29T04:13:02.942Z,18.50
2022-11-29T04:14:34.793Z,14.95
2022-11-29T04:15:55.348Z,16.80
2022-11-29T04:17:24.822Z,16.58
2022-11-29T04:18:43.805Z,15.70
2022-11-29T04:20:07.705Z,16.10
2022-11-29T04:21:32.714Z,18.00
2022-11-29T04:22:43.669Z,16.80
2022-11-29T04:25:16.318Z,14.98
2022-11-29T04:26:24.215Z,18.42
2022-11-29T04:27:48.566Z,18.10
2022-11-29T04:29:11.445Z,15.57
2022-11-29T04:30:18.994Z,17.17
2022-11-29T04:31:33.400Z,21.15
2022-11-29T04:32:41.212Z,19.13
2022-11-29T04:34:20.489Z,16.02
2022-11-29T04:36:07.686Z,17.27
2022-11-29T04:37:18.603Z,18.33
2022-11-29T04:39:59.385Z,18.17
2022-11-29T04:41:01.472Z,16.30
2022-11-29T04:42:15.412Z,17.30
2022-11-29T04:43:29.735Z,19.48
2022-11-29T04:44:46.398Z,17.42
2022-11-29T04:45:57.636Z,18.08
2022-11-29T04:47:11.698Z,19.45
2022-11-29T04:48:25.331Z,20.58
2022-11-29T04:49:57.152Z,16.90
2022-11-29T04:50:59.272Z,16.33
2022-11-29T04:52:29.793Z,17.83
2022-11-29T04:53:53.521Z,21.27
2022-11-29T04:55:08.119Z,17.40
2022-11-29T04:56:31.221Z,17.50
2022-11-29T04:57:44.931Z,16.30
2022-11-29T04:59:05.834Z,17.13
2022-11-29T05:00:15.547Z,16.98
2022-11-29T05:01:48.081Z,17.23
2022-11-29T05:02:59.289Z,17.55
2022-11-29T05:04:43.658Z,15.98
2022-11-29T05:05:59.186Z,17.42
2022-11-29T05:07:16.101Z,16.38
2022-11-29T05:08:45.217Z,19.95
2022-11-29T05:10:32.283Z,17.33
2022-11-29T05:11:55.925Z,16.45
2022-11-29T05:13:34.117Z,16.63
2022-11-29T05:14:54.703Z,16.38
2022-11-29T05:16:15.702Z,18.30
2022-11-29T05:17:50.503Z,16.15
2022-11-29T05:19:17.294Z,17.73
2022-11-29T05:20:40.999Z,16.80
2022-11-29T05:21:49.041Z,16.15
2022-11-29T05:23:09.915Z,18.80
2022-11-29T05:24:19.292Z,18.42
2022-11-29T05:25:49.555Z,17.80
2022-11-29T05:27:15.272Z,19.27
2022-11-29T05:28:32.598Z,16.58
2022-11-29T05:29:46.211Z,17.88
2022-11-29T05:31:00.250Z,18.67
2022-11-29T05:32:32.553Z,19.95
2022-11-29T05:33:47.457Z,17.63
2022-11-29T05:34:52.081Z,17.63
2022-11-29T05:36:07.963Z,17.35
2022-11-29T05:37:37.294Z,20.55
2022-11-29T05:38:50.553Z,16.80
2022-11-29T05:40:14.670Z,17.38
2022-11-29T05:41:35.685Z,16.13
2022-11-29T05:43:55.521Z,16.30
2022-11-29T05:45:14.429Z,16.50
2022-11-29T05:46:42.884Z,17.73
2022-11-29T05:47:57.560Z,15.35
2022-11-29T05:49:21.226Z,18.48
2022-11-29T05:50:37.945Z,17.70
2022-11-29T05:52:16.647Z,17.25
2022-11-29T05:53:28.027Z,15.85
2022-11-29T05:54:37.973Z,15.50
2022-11-29T05:55:51.924Z,15.93
2022-11-29T05:57:35.624Z,16.27
2022-11-29T05:58:55.934Z,16.23
2022-11-29T06:00:01.137Z,16.48
2022-11-29T06:01:21.685Z,17.95
2022-11-29T06:02:26.644Z,18.50
2022-11-29T06:03:47.128Z,17.27
2022-11-29T06:05:15.505Z,18.30
2022-11-29T06:06:47.986Z,16.52
2022-11-29T06:08:17.999Z,16.40
2022-11-29T06:09:35.324Z,17.83
2022-11-29T06:10:40.554Z,16.70
2022-11-29T06:11:48.647Z,17.48
2022-11-29T06:13:15.701Z,18.63
2022-11-29T06:15:16.389Z,17.48
2022-11-29T06:16:27.807Z,17.58
2022-11-29T06:17:48.872Z,18.33
2022-11-29T06:19:58.802Z,16.52
2022-11-29T06:21:30.540Z,17.23
2022-11-29T06:22:57.338Z,16.02
2022-11-29T06:24:25.538Z,17.60
2022-11-29T06:25:53.305Z,17.15
2022-11-29T06:27:10.467Z,17.42
2022-11-29T06:28:24.803Z,15.93
2022-11-29T06:29:39.295Z,16.98
2022-11-29T06:31:23.063Z,17.48
2022-11-29T06:32:34.070Z,16.90
2022-11-29T06:34:51.753Z,17.42
2022-11-29T06:36:23.172Z,16.45
2022-11-29T06:37:34.563Z,20.00
2022-11-29T06:38:37.193Z,16.20
2022-11-29T06:39:39.514Z,17.23
2022-11-29T06:40:42.077Z,18.92
2022-11-29T06:41:44.837Z,17.17
2022-11-29T06:42:48.879Z,19.75
2022-11-29T06:43:51.556Z,16.50
2022-11-29T06:44:54.006Z,17.67
2022-11-29T06:46:05.242Z,16.88
2022-11-29T06:47:17.921Z,19.17
2022-11-29T06:48:27.455Z,17.55
2022-11-29T06:49:43.318Z,16.27
2022-11-29T06:51:03.232Z,14.52
2022-11-29T06:52:20.249Z,16.45
2022-11-29T06:53:31.232Z,17.02
2022-11-29T06:55:15.403Z,15.00
2022-11-29T06:56:33.028Z,16.17
2022-11-29T06:57:47.420Z,17.98
2022-11-29T06:59:20.595Z,16.67
2022-11-29T07:00:27.091Z,15.70
2022-11-29T07:01:51.680Z,16.30
2022-11-29T07:03:22.706Z,15.88
2022-11-29T07:04:31.329Z,15.55
2022-11-29T07:05:35.138Z,17.17
2022-11-29T07:06:37.529Z,16.60
2022-11-29T07:07:41.194Z,16.85
2022-11-29T07:08:45.197Z,17.83
2022-11-29T07:09:49.607Z,18.83
2022-11-29T07:10:54.874Z,14.88
2022-11-29T07:11:57.452Z,18.23
2022-11-29T07:12:59.864Z,16.80
2022-11-29T07:14:02.332Z,17.48
2022-11-29T07:15:05.078Z,16.38
2022-11-29T07:16:31.608Z,15.93
2022-11-29T07:17:45.144Z,19.55
2022-11-29T07:18:53.899Z,16.83
2022-11-29T07:20:04.792Z,17.40
2022-11-29T07:22:40.799Z,15.52
2022-11-29T07:24:02.744Z,16.77
2022-11-29T07:25:23.249Z,17.85
2022-11-29T07:26:59.413Z,18.52
2022-11-29T07:28:11.345Z,15.02
2022-11-29T07:29:23.955Z,16.75
2022-11-29T07:30:51.066Z,16.10
2022-11-29T07:32:14.351Z,18.20
2022-11-29T07:33:54.912Z,17.30
2022-11-29T07:35:17.615Z,18.08
2022-11-29T07:36:40.925Z,16.60
2022-11-29T07:38:24.334Z,16.58
2022-11-29T07:39:59.527Z,16.70
2022-11-29T07:41:11.815Z,16.85
2022-11-29T07:42:31.352Z,16.95
2022-11-29T07:44:01.362Z,17.00
2022-11-29T07:45:27.570Z,18.30
2022-11-29T07:46:30.113Z,17.63
2022-11-29T07:47:35.705Z,17.70
2022-11-29T07:48:38.459Z,20.02
2022-11-29T07:49:40.910Z,19.80
2022-11-29T07:50:43.917Z,17.90
2022-11-29T07:51:46.123Z,17.90
2022-11-29T07:52:49.112Z,16.92
2022-11-29T07:53:51.260Z,18.58
2022-11-29T07:54:53.416Z,17.92
2022-11-29T07:55:55.686Z,20.80
2022-11-29T07:56:57.842Z,18.02
2022-11-29T07:58:00.113Z,17.92
2022-11-29T07:59:02.701Z,17.38
2022-11-29T08:00:05.853Z,21.20
2022-11-29T08:01:13.649Z,17.80
2022-11-29T08:02:26.441Z,18.33
2022-11-29T08:03:29.220Z,18.05
2022-11-29T08:04:31.424Z,17.95
2022-11-29T08:05:33.704Z,19.23
2022-11-29T08:06:36.341Z,18.40
2022-11-29T08:07:40.165Z,16.60
2022-11-29T08:08:44.115Z,19.58
2022-11-29T08:09:46.821Z,16.60
2022-11-29T08:10:49.329Z,17.85
2022-11-29T08:11:51.600Z,18.25
2022-11-29T08:12:54.335Z,17.88
2022-11-29T08:13:58.496Z,17.75
2022-11-29T08:15:00.893Z,16.70
2022-11-29T08:16:03.369Z,20.70
2022-11-29T08:17:05.613Z,19.70
2022-11-29T08:18:07.733Z,20.10
2022-11-29T08:19:09.842Z,19.92
2022-11-29T08:20:13.373Z,20.15
2022-11-29T08:21:18.091Z,16.45
2022-11-29T08:22:20.357Z,17.05
2022-11-29T08:23:22.527Z,17.33
2022-11-29T08:24:26.242Z,20.17
2022-11-29T08:25:28.399Z,17.20
2022-11-29T08:26:31.771Z,19.55
2022-11-29T08:27:35.831Z,17.27
2022-11-29T08:28:38.403Z,18.83
2022-11-29T08:29:40.603Z,18.75
2022-11-29T08:30:42.757Z,17.05
2022-11-29T08:31:45.430Z,19.73
2022-11-29T08:32:51.373Z,17.45
2022-11-29T08:33:53.954Z,17.52
2022-11-29T08:34:56.082Z,16.23
2022-11-29T08:36:08.211Z,20.15
2022-11-29T08:37:10.492Z,17.75
2022-11-29T08:38:12.678Z,18.52
2022-11-29T08:39:14.830Z,18.73
2022-11-29T08:40:17.472Z,18.67
2022-11-29T08:41:19.594Z,18.25
2022-11-29T08:42:21.779Z,15.85
2022-11-29T08:43:23.907Z,16.08
2022-11-29T08:44:26.133Z,18.23
2022-11-29T08:45:28.425Z,18.33
2022-11-29T08:46:50.480Z,17.15
2022-11-29T08:47:52.593Z,17.55
2022-11-29T08:48:54.697Z,17.70
2022-11-29T08:50:02.833Z,18.98
2022-11-29T08:51:06.489Z,16.73
2022-11-29T08:52:26.949Z,17.95
2022-11-29T08:53:44.729Z,17.13
2022-11-29T08:54:47.137Z,18.63
2022-11-29T08:55:50.488Z,18.15
2022-11-29T08:58:15.595Z,16.98
2022-11-29T08:59:17.782Z,19.17
2022-11-29T09:00:21.315Z,18.40
2022-11-29T09:01:23.719Z,16.23
2022-11-29T09:02:25.924Z,17.23
2022-11-29T09:03:46.350Z,17.05
2022-11-29T09:04:48.537Z,15.45
2022-11-29T09:05:50.963Z,18.52
2022-11-29T09:06:53.133Z,18.42
2022-11-29T09:07:55.483Z,16.20
2022-11-29T09:08:58.171Z,17.17
2022-11-29T09:10:05.019Z,16.10
2022-11-29T09:11:09.338Z,16.25
2022-11-29T09:12:11.927Z,16.13
2022-11-29T09:13:14.885Z,16.42
2022-11-29T09:14:17.783Z,15.95
2022-11-29T09:15:20.325Z,16.17
2022-11-29T09:16:25.568Z,16.23
2022-11-29T09:17:28.183Z,15.75
2022-11-29T09:18:30.663Z,16.77
2022-11-29T09:19:33.305Z,15.77
2022-11-29T09:20:35.697Z,13.70
2022-11-29T09:21:38.079Z,16.55
2022-11-29T09:22:40.645Z,15.23
2022-11-29T09:23:44.054Z,13.82
2022-11-29T09:24:47.401Z,13.18
2022-11-29T09:25:49.957Z,14.95
2022-11-29T09:26:52.100Z,15.40
2022-11-29T09:27:57.263Z,13.82
2022-11-29T09:29:03.726Z,15.85
2022-11-29T09:30:06.615Z,14.93
2022-11-29T09:31:12.363Z,13.75
2022-11-29T09:32:14.539Z,13.73
2022-11-29T09:33:17.133Z,15.35
2022-11-29T09:34:19.359Z,13.45
2022-11-29T09:35:21.631Z,14.68
2022-11-29T09:36:28.397Z,16.27
2022-11-29T09:37:31.533Z,13.80
2022-11-29T09:38:34.851Z,13.52
2022-11-29T09:39:37.019Z,13.48
2022-11-29T09:40:46.885Z,15.52
2022-11-29T09:42:27.221Z,16.40
2022-11-29T09:43:44.232Z,11.95
2022-11-29T09:44:55.373Z,11.48
2022-11-29T09:46:06.932Z,13.25
2022-11-29T09:47:15.050Z,12.23
2022-11-29T09:48:20.251Z,13.20
2022-11-29T09:50:01.100Z,12.63
2022-11-29T09:51:25.537Z,12.13
2022-11-29T09:52:52.324Z,11.20
2022-11-29T09:54:11.384Z,12.95
2022-11-29T09:55:16.257Z,11.85
2022-11-29T09:56:38.767Z,12.55
2022-11-29T09:57:43.951Z,13.65
2022-11-29T09:58:52.890Z,12.73
2022-11-29T10:00:01.790Z,11.68
2022-11-29T10:01:09.471Z,13.30
2022-11-29T10:02:21.972Z,12.30
2022-11-29T10:03:40.022Z,11.90
2022-11-29T10:04:47.991Z,12.48
2022-11-29T10:05:57.419Z,12.43
2022-11-29T10:07:38.240Z,11.27
2022-11-29T10:08:46.093Z,9.73
2022-11-29T10:09:55.319Z,11.15
2022-11-29T10:11:12.171Z,11.10
2022-11-29T10:12:31.786Z,11.07
2022-11-29T10:13:35.903Z,10.63
2022-11-29T10:14:57.718Z,10.63
2022-11-29T10:16:09.992Z,11.30
2022-11-29T10:17:18.604Z,12.20
2022-11-29T10:18:38.496Z,11.20
2022-11-29T10:19:50.740Z,10.90
2022-11-29T10:20:58.464Z,11.40
2022-11-29T10:22:24.922Z,11.27
2022-11-29T10:23:41.825Z,11.75
2022-11-29T10:24:49.752Z,10.00
2022-11-29T10:25:54.225Z,11.52
2022-11-29T10:26:56.591Z,11.00
2022-11-29T10:27:59.086Z,9.43
2022-11-29T10:29:01.379Z,11.52
2022-11-29T10:30:06.451Z,11.02
2022-11-29T10:31:19.300Z,10.85
2022-11-29T10:32:25.388Z,10.57
2022-11-29T10:33:32.700Z,11.10
2022-11-29T10:34:35.177Z,10.10
2022-11-29T10:35:37.614Z,10.07
2022-11-29T10:36:44.628Z,10.48
2022-11-29T10:38:07.615Z,10.23
2022-11-29T10:39:37.214Z,11.02
2022-11-29T10:40:42.019Z,11.05
2022-11-29T10:41:44.309Z,10.45
2022-11-29T10:42:49.674Z,10.32
2022-11-29T10:43:54.407Z,9.25
2022-11-29T10:44:58.224Z,8.95
2022-11-29T10:46:02.417Z,10.23
2022-11-29T10:47:10.516Z,10.38
2022-11-29T10:48:17.255Z,11.27
2022-11-29T10:49:23.622Z,9.27
2022-11-29T10:50:27.964Z,10.82
2022-11-29T10:51:31.482Z,10.90
2022-11-29T10:52:33.919Z,11.10
2022-11-29T10:53:37.473Z,11.70
2022-11-29T10:54:42.564Z,10.38
2022-11-29T10:55:59.115Z,11.32
2022-11-29T10:57:02.282Z,9.20
2022-11-29T10:58:28.402Z,10.20
2022-11-29T10:59:33.001Z,10.48
2022-11-29T11:00:52.746Z,10.63
2022-11-29T11:01:55.820Z,9.75
2022-11-29T11:03:16.919Z,10.13
2022-11-29T11:05:29.279Z,9.98
2022-11-29T11:06:51.472Z,11.10
2022-11-29T11:07:58.666Z,10.65
2022-11-29T11:09:31.649Z,10.15
2022-11-29T11:10:33.833Z,10.55
2022-11-29T11:11:36.023Z,12.98
2022-11-29T11:12:38.203Z,11.15
2022-11-29T11:13:41.883Z,10.68
2022-11-29T11:14:45.401Z,11.05
2022-11-29T11:15:47.994Z,9.63
2022-11-29T11:16:51.161Z,10.88
2022-11-29T11:18:04.747Z,10.63
2022-11-29T11:19:39.176Z,10.02
2022-11-29T11:20:42.426Z,11.20
2022-11-29T11:21:44.600Z,10.95
2022-11-29T11:23:02.405Z,10.55
2022-11-29T11:24:04.651Z,9.77
2022-11-29T11:25:31.564Z,11.70
2022-11-29T11:26:45.248Z,11.82
2022-11-29T11:27:47.787Z,10.20
2022-11-29T11:28:54.824Z,11.23
2022-11-29T11:29:57.738Z,10.57
2022-11-29T11:31:04.500Z,12.23
2022-11-29T11:32:19.997Z,10.55
2022-11-29T11:33:24.865Z,10.75
2022-11-29T11:34:31.705Z,10.77
2022-11-29T11:35:34.075Z,11.23
2022-11-29T11:36:36.293Z,11.57
2022-11-29T11:37:38.426Z,12.27
2022-11-29T11:38:53.984Z,11.48
2022-11-29T11:39:59.172Z,12.13
2022-11-29T11:41:03.435Z,10.88
2022-11-29T11:42:24.417Z,10.35
2022-11-29T11:43:26.696Z,9.75
2022-11-29T11:44:53.382Z,11.50
2022-11-29T11:45:55.784Z,10.27
2022-11-29T11:47:00.045Z,11.90
2022-11-29T11:48:13.668Z,12.93
2022-11-29T11:49:45.828Z,12.55
2022-11-29T11:50:57.458Z,10.57
2022-11-29T11:52:03.341Z,11.55
2022-11-29T11:53:18.310Z,11.75
2022-11-29T11:54:20.819Z,10.43
2022-11-29T11:55:43.386Z,12.40
2022-11-29T11:56:45.640Z,11.68
2022-11-29T11:58:10.314Z,11.57
2022-11-29T11:59:21.271Z,12.95
2022-11-29T12:02:25.340Z,11.02
2022-11-29T12:03:43.876Z,11.32
2022-11-29T12:04:46.515Z,11.70
2022-11-29T12:05:51.415Z,12.38
2022-11-29T12:06:57.237Z,11.52
2022-11-29T12:08:10.010Z,11.10
2022-11-29T12:09:34.384Z,11.23
2022-11-29T12:10:40.453Z,11.82
2022-11-29T12:12:07.673Z,12.30
2022-11-29T12:13:21.134Z,12.65
2022-11-29T12:14:47.336Z,11.45
2022-11-29T12:15:50.950Z,12.73
2022-11-29T12:17:14.322Z,11.80
2022-11-29T12:18:30.813Z,12.02
2022-11-29T12:19:41.809Z,10.75
2022-11-29T12:21:13.098Z,11.65
2022-11-29T12:22:22.314Z,11.23
2022-11-29T12:23:46.505Z,12.35
2022-11-29T12:24:57.072Z,11.60
2022-11-29T12:26:06.583Z,13.43
2022-11-29T12:27:14.406Z,13.52
2022-11-29T12:28:20.850Z,13.18
2022-11-29T12:29:25.833Z,11.13
2022-11-29T12:30:28.135Z,11.27
2022-11-29T12:31:32.870Z,12.10
2022-11-29T12:32:52.199Z,13.00
2022-11-29T12:34:06.573Z,14.10
2022-11-29T12:35:50.262Z,11.98
2022-11-29T12:37:04.397Z,12.90
2022-11-29T12:38:09.273Z,11.02
2022-11-29T12:39:30.064Z,11.60
2022-11-29T12:40:57.324Z,11.18
2022-11-29T12:42:14.241Z,13.57
2022-11-29T12:43:31.555Z,12.32
2022-11-29T12:44:48.585Z,13.18
2022-11-29T12:46:15.127Z,12.85
2022-11-29T12:48:57.864Z,12.65
2022-11-29T12:50:12.772Z,14.45
2022-11-29T12:51:52.329Z,12.52
2022-11-29T12:53:11.261Z,12.45
2022-11-29T12:54:40.977Z,12.98
2022-11-29T12:56:18.772Z,13.43
2022-11-29T12:57:24.052Z,12.32
2022-11-29T12:58:51.367Z,13.07
2022-11-29T13:00:11.315Z,12.40
2022-11-29T13:01:51.146Z,12.68
2022-11-29T13:03:08.942Z,11.88
2022-11-29T13:05:24.943Z,12.70
2022-11-29T13:06:38.683Z,12.30
2022-11-29T13:08:08.237Z,12.70
2022-11-29T13:09:28.205Z,12.60
2022-11-29T13:10:46.013Z,11.82
2022-11-29T13:11:56.533Z,12.57
2022-11-29T13:13:04.841Z,12.93
2022-11-29T13:14:42.629Z,12.85
2022-11-29T13:16:08.215Z,11.45
2022-11-29T13:17:29.286Z,11.70
2022-11-29T13:19:53.361Z,11.93
2022-11-29T13:21:04.691Z,13.57
2022-11-29T13:22:19.873Z,12.95
2022-11-29T13:23:45.603Z,13.45
2022-11-29T13:25:01.679Z,13.02
2022-11-29T13:26:09.856Z,12.50
2022-11-29T13:27:19.018Z,12.63
2022-11-29T13:28:27.735Z,12.27
2022-11-29T13:29:30.679Z,12.05
2022-11-29T13:30:35.079Z,13.82
2022-11-29T13:31:38.931Z,11.95
2022-11-29T13:32:53.060Z,11.52
2022-11-29T13:34:08.266Z,10.63
2022-11-29T13:35:28.981Z,12.20
2022-11-29T13:37:16.126Z,12.02
2022-11-29T13:38:21.238Z,12.32
2022-11-29T13:39:55.839Z,12.88
2022-11-29T13:41:02.327Z,12.07
2022-11-29T13:42:13.382Z,11.63
2022-11-29T13:43:41.198Z,13.05
2022-11-29T13:44:51.252Z,12.15
2022-11-29T13:46:14.167Z,11.65
2022-11-29T13:47:18.321Z,11.52
2022-11-29T13:48:48.634Z,13.23
2022-11-29T13:49:57.206Z,10.77
2022-11-29T13:51:33.156Z,10.40
2022-11-29T13:52:43.137Z,10.77
2022-11-29T13:53:48.841Z,10.82
2022-11-29T13:55:15.453Z,10.63
2022-11-29T13:56:36.013Z,11.35
2022-11-29T13:58:14.341Z,11.98
2022-11-29T13:59:19.340Z,10.30
2022-11-29T14:00:43.905Z,10.90
2022-11-29T14:01:51.640Z,9.57
2022-11-29T14:02:55.583Z,9.73
2022-11-29T14:04:07.361Z,10.85
2022-11-29T14:05:25.237Z,10.95
2022-11-29T14:06:36.232Z,10.93
2022-11-29T14:08:18.145Z,10.82
2022-11-29T14:09:29.036Z,11.40
2022-11-29T14:11:50.017Z,10.40
2022-11-29T14:12:56.847Z,10.90
2022-11-29T14:14:24.394Z,12.85
2022-11-29T14:15:29.351Z,11.02
2022-11-29T14:16:34.825Z,10.60
2022-11-29T14:17:43.101Z,10.63
2022-11-29T14:18:47.356Z,10.45
2022-11-29T14:19:49.490Z,11.13
2022-11-29T14:20:56.301Z,11.45
2022-11-29T14:22:07.548Z,10.05
2022-11-29T14:23:12.458Z,11.95
2022-11-29T14:24:35.298Z,10.02
2022-11-29T14:25:56.283Z,10.90
2022-11-29T14:28:23.046Z,10.63
2022-11-29T14:29:53.937Z,10.18
2022-11-29T14:31:09.044Z,11.65
2022-11-29T14:32:21.245Z,12.35
2022-11-29T14:33:50.981Z,11.35
2022-11-29T14:35:08.063Z,11.88
2022-11-29T14:36:18.743Z,11.32
2022-11-29T14:37:33.879Z,11.13
2022-11-29T14:38:47.512Z,10.25
2022-11-29T14:39:54.952Z,11.40
2022-11-29T14:41:24.948Z,12.15
2022-11-29T14:42:28.360Z,11.02
2022-11-29T14:43:36.643Z,11.75
2022-11-29T14:44:45.638Z,10.38
2022-11-29T14:46:06.124Z,11.32
2022-11-29T14:47:20.366Z,10.15
2022-11-29T14:48:31.732Z,11.85
2022-11-29T14:49:43.456Z,12.40
2022-11-29T14:50:45.623Z,11.73
2022-11-29T14:52:15.279Z,10.63
2022-11-29T14:53:34.173Z,12.07
2022-11-29T14:54:54.352Z,11.90
2022-11-29T14:56:35.191Z,10.73
2022-11-29T14:58:03.742Z,11.18
2022-11-29T14:59:43.285Z,11.35
2022-11-29T15:00:48.183Z,10.82
2022-11-29T15:01:50.493Z,10.93
2022-11-29T15:03:11.036Z,10.50
2022-11-29T15:04:13.526Z,12.20
2022-11-29T15:05:18.579Z,10.23
2022-11-29T15:06:26.775Z,10.05
2022-11-29T15:07:31.891Z,10.80
2022-11-29T15:08:41.848Z,9.38
2022-11-29T15:09:49.594Z,11.37
2022-11-29T15:10:57.006Z,9.80
2022-11-29T15:12:03.184Z,10.75
2022-11-29T15:13:06.920Z,10.52
2022-11-29T15:14:43.385Z,10.63
2022-11-29T15:16:05.785Z,10.07
2022-11-29T15:17:25.358Z,10.05
2022-11-29T15:18:46.817Z,10.90
2022-11-29T15:20:16.465Z,10.65
2022-11-29T15:21:35.859Z,9.18
2022-11-29T15:22:54.694Z,10.05
2022-11-29T15:24:06.799Z,9.55
2022-11-29T15:25:18.034Z,10.88
2022-11-29T15:26:21.154Z,9.40
2022-11-29T15:27:24.223Z,9.18
2022-11-29T15:28:28.773Z,11.75
2022-11-29T15:29:31.744Z,9.57
2022-11-29T15:30:39.280Z,9.45
2022-11-29T15:31:43.294Z,9.57
2022-11-29T15:32:46.362Z,10.43
2022-11-29T15:33:49.752Z,10.85
2022-11-29T15:34:54.561Z,12.70
2022-11-29T15:36:05.395Z,14.88
2022-11-29T15:38:24.337Z,11.10
2022-11-29T15:39:32.818Z,11.10
2022-11-29T15:40:37.043Z,11.18
2022-11-29T15:41:41.214Z,11.93
2022-11-29T15:42:53.279Z,10.05
2022-11-29T15:44:02.212Z,9.85
2022-11-29T15:45:22.684Z,9.32
2022-11-29T15:46:30.005Z,9.98
2022-11-29T15:47:32.124Z,9.73
2022-11-29T15:48:34.389Z,10.07
2022-11-29T15:49:36.510Z,8.38
2022-11-29T15:50:41.532Z,11.13
2022-11-29T15:51:47.741Z,9.57
2022-11-29T15:52:49.968Z,9.65
2022-11-29T15:54:13.153Z,9.13